Time;durP1;ratioP1;P1;durP2;ratioP2;P2;SDS_P1;SDS_P2;PMS_P1;PMS_P2;Temp;Humidity;BMP_temperature;BMP_pressure;BME280_temperature;BME280_humidity;BME280_pressure;Samples;Min_cycle;Max_cycle;Signal;HPM_P1;HPM_P2
2023/12/18 00:01:05;;;;;;;22.27;11.60;;;;;;;-144.30;90.78;86911.56;5109897;28;20225;-56
2023/12/18 00:03:33;;;;;;;19.60;11.87;;;;;;;-144.30;91.11;86927.47;5110155;28;20194;-55
2023/12/18 00:06:00;;;;;;;19.80;12.33;;;;;;;-144.30;91.57;86851.91;5110332;28;20201;-54
2023/12/18 00:08:27;;;;;;;19.63;11.10;;;;;;;-144.30;91.61;86887.72;5110023;28;20677;-54
2023/12/18 00:10:54;;;;;;;19.00;11.10;;;;;;;-144.30;91.91;86899.66;5110167;28;20205;-55
2023/12/18 00:13:21;;;;;;;20.43;11.30;;;;;;;-144.30;91.70;86891.69;5109686;28;20198;-55
2023/12/18 00:15:48;;;;;;;19.60;11.67;;;;;;;-144.30;91.91;86879.75;5109748;28;20201;-56
2023/12/18 00:18:15;;;;;;;16.87;10.00;;;;;;;-144.30;91.44;86879.75;5109766;28;20265;-57
2023/12/18 00:20:43;;;;;;;19.80;11.50;;;;;;;-144.30;91.02;86843.97;5109789;28;20233;-54
2023/12/18 00:23:10;;;;;;;18.97;11.10;;;;;;;-144.30;90.92;86875.78;5109729;28;20203;-54
2023/12/18 00:25:38;;;;;;;19.47;10.93;;;;;;;-144.30;90.56;86899.66;5109548;28;20307;-54
2023/12/18 00:28:05;;;;;;;17.40;10.87;;;;;;;-144.30;90.00;86895.66;5109848;28;20285;-54
2023/12/18 00:30:32;;;;;;;17.83;10.40;;;;;;;-144.30;90.07;86857.88;5109628;28;20194;-54
2023/12/18 00:32:59;;;;;;;17.37;10.33;;;;;;;-144.30;90.19;86893.69;5109648;28;20194;-54
2023/12/18 00:35:26;;;;;;;18.03;10.27;;;;;;;-144.30;90.32;86843.97;5109445;28;20206;-54
2023/12/18 00:37:54;;;;;;;17.70;10.70;;;;;;;-144.30;90.40;86859.88;5109687;28;20674;-56
2023/12/18 00:40:21;;;;;;;19.20;10.43;;;;;;;-144.30;89.90;86871.81;5109149;28;20201;-54
2023/12/18 00:42:48;;;;;;;20.03;11.00;;;;;;;-144.30;89.67;86871.81;5109544;28;20282;-54
2023/12/18 00:45:16;;;;;;;17.63;10.10;;;;;;;-144.30;89.64;86855.88;5109331;28;20204;-54
2023/12/18 00:47:43;;;;;;;19.03;10.60;;;;;;;-144.30;89.34;86867.81;5109469;28;20198;-54
2023/12/18 00:50:10;;;;;;;17.27;11.00;;;;;;;-144.30;89.61;86847.94;5109487;28;20205;-53
2023/12/18 00:52:37;;;;;;;16.90;10.37;;;;;;;-144.30;89.67;86873.78;5112747;28;20733;-53
2023/12/18 00:55:07;;;;;;;15.67;9.63;;;;;;;-144.30;89.52;87253.66;5113791;28;20204;-54
2023/12/18 00:57:34;;;;;;;20.87;10.67;;;;;;;-144.30;89.28;86871.81;5113451;28;20231;-54
2023/12/18 01:00:01;;;;;;;14.60;9.50;;;;;;;-144.30;89.33;86905.59;5113694;28;20583;-54
2023/12/18 01:02:28;;;;;;;19.30;10.50;;;;;;;-144.30;89.45;86885.72;5113375;28;20279;-54
2023/12/18 01:04:56;;;;;;;17.63;10.10;;;;;;;-144.30;89.15;86843.97;5113127;28;20283;-53
2023/12/18 01:07:23;;;;;;;19.60;10.53;;;;;;;-144.30;89.35;86879.75;5112929;28;20688;-54
2023/12/18 01:09:50;;;;;;;18.10;11.03;;;;;;;-144.30;88.92;86865.84;5113036;28;20293;-56
2023/12/18 01:12:18;;;;;;;17.73;10.73;;;;;;;-144.30;89.26;86843.97;5112970;28;20195;-55
2023/12/18 01:14:46;;;;;;;18.73;10.60;;;;;;;-144.30;89.03;86841.97;5113286;28;20714;-54
2023/12/18 01:17:12;;;;;;;18.63;11.10;;;;;;;-144.30;89.09;86855.88;5113240;28;20198;-57
2023/12/18 01:19:40;;;;;;;16.77;10.47;;;;;;;-144.30;89.52;86879.75;5113049;28;20200;-57
2023/12/18 01:22:07;;;;;;;16.67;9.90;;;;;;;-144.30;90.00;86871.81;5113123;28;20221;-54
2023/12/18 01:24:34;;;;;;;22.03;11.43;;;;;;;-144.30;89.57;86883.72;5112743;28;20252;-56
2023/12/18 01:27:01;;;;;;;16.23;10.80;;;;;;;-144.30;89.90;86891.69;5113066;28;20737;-56
2023/12/18 01:29:29;;;;;;;20.17;10.80;;;;;;;-144.30;89.81;86847.94;5112752;28;20207;-56
2023/12/18 01:31:56;;;;;;;15.53;9.93;;;;;;;-144.30;90.09;86901.63;5112866;28;20266;-56
2023/12/18 01:34:23;;;;;;;21.13;10.83;;;;;;;-144.30;90.10;86867.81;5112654;28;20202;-56
2023/12/18 01:36:50;;;;;;;18.43;10.23;;;;;;;-144.30;90.02;86891.69;5112578;28;20201;-54
2023/12/18 01:39:17;;;;;;;16.23;10.17;;;;;;;-144.30;90.47;86855.88;5112484;28;20208;-54
2023/12/18 01:41:44;;;;;;;16.73;10.47;;;;;;;-144.30;90.49;86867.81;5112464;28;20233;-54
2023/12/18 01:44:11;;;;;;;16.87;11.00;;;;;;;-144.30;90.15;86891.69;5112710;28;20200;-55
2023/12/18 01:46:39;;;;;;;18.80;10.50;;;;;;;-144.30;90.05;86891.69;5112582;28;20197;-56
2023/12/18 01:49:09;;;;;;;16.50;10.80;;;;;;;-144.30;90.11;86911.56;5112413;28;20204;-54
2023/12/18 01:51:36;;;;;;;16.73;10.03;;;;;;;-144.30;90.42;86875.78;5112116;28;20194;-54
2023/12/18 01:54:04;;;;;;;17.37;10.80;;;;;;;-144.30;90.92;86881.75;5112740;28;20699;-55
2023/12/18 01:56:32;;;;;;;17.27;10.50;;;;;;;-144.30;90.87;86875.78;5112302;28;20285;-57
2023/12/18 01:59:00;;;;;;;19.03;10.83;;;;;;;-144.30;91.76;86899.66;5112396;28;20289;-56
2023/12/18 02:01:28;;;;;;;16.33;9.90;;;;;;;-144.30;91.59;86883.72;5112007;28;20222;-56
2023/12/18 02:03:56;;;;;;;20.30;10.57;;;;;;;-144.30;91.33;86879.75;5110916;28;20198;-56
2023/12/18 02:06:25;;;;;;;17.30;10.30;;;;;;;-144.30;90.58;86883.72;5111789;28;20201;-55
2023/12/18 02:08:52;;;;;;;16.33;10.20;;;;;;;-144.30;90.51;86899.66;5112046;28;20700;-54
2023/12/18 02:11:19;;;;;;;21.00;10.67;;;;;;;-144.30;90.35;86853.91;5111881;28;20205;-54
2023/12/18 02:13:46;;;;;;;19.00;10.10;;;;;;;-144.30;90.48;86873.78;5112052;28;20213;-54
2023/12/18 02:16:13;;;;;;;17.10;9.03;;;;;;;-144.30;90.05;86883.72;5112067;28;20229;-54
2023/12/18 02:18:43;;;;;;;15.00;9.23;;;;;;;-144.30;89.99;86889.69;5111691;28;20303;-53
2023/12/18 02:21:12;;;;;;;14.10;8.40;;;;;;;-144.30;90.15;86885.72;5112033;27;20225;-54
2023/12/18 02:23:40;;;;;;;15.30;8.77;;;;;;;-144.30;89.67;86865.84;5111732;28;20202;-54
2023/12/18 02:26:07;;;;;;;15.40;9.43;;;;;;;-144.30;89.42;86832.03;5111835;28;20198;-55
2023/12/18 02:28:34;;;;;;;12.43;8.60;;;;;;;-144.30;89.04;86867.81;5111693;28;20202;-55
2023/12/18 02:31:03;;;;;;;17.53;9.40;;;;;;;-144.30;88.74;86869.81;5112023;28;20201;-55
2023/12/18 02:33:29;;;;;;;15.23;9.17;;;;;;;-144.30;88.32;86839.97;5111675;28;20617;-57
2023/12/18 02:35:57;;;;;;;13.77;9.07;;;;;;;-144.30;87.94;86836.00;5111623;28;20201;-56
2023/12/18 02:38:24;;;;;;;12.27;8.30;;;;;;;-144.30;87.70;86847.94;5111603;28;20696;-55
2023/12/18 02:40:53;;;;;;;15.47;9.10;;;;;;;-144.30;87.73;86863.84;5111378;27;20742;-57
2023/12/18 02:43:20;;;;;;;17.03;9.30;;;;;;;-144.30;87.81;86839.97;5111323;28;20651;-57
2023/12/18 02:45:47;;;;;;;15.10;9.47;;;;;;;-144.30;88.23;86847.94;5111414;28;20222;-56
2023/12/18 02:48:13;;;;;;;16.07;8.77;;;;;;;-144.30;88.71;86903.63;5111742;28;20248;-56
2023/12/18 02:50:40;;;;;;;14.10;8.73;;;;;;;-144.30;88.73;86875.78;5111391;28;20208;-56
2023/12/18 02:53:07;;;;;;;15.23;9.63;;;;;;;-144.30;88.69;86875.78;5111290;28;20289;-56
2023/12/18 02:55:34;;;;;;;14.00;8.17;;;;;;;-144.30;88.45;86828.03;5111098;28;20205;-57
2023/12/18 02:58:03;;;;;;;12.47;7.70;;;;;;;-144.30;88.61;86871.81;5111329;28;20586;-56
2023/12/18 03:00:30;;;;;;;12.80;8.27;;;;;;;-144.30;88.49;86879.75;5110925;28;20283;-56
2023/12/18 03:02:56;;;;;;;11.57;8.30;;;;;;;-144.30;89.25;86897.66;5111001;27;20228;-54
2023/12/18 03:05:23;;;;;;;12.10;8.13;;;;;;;-144.30;89.44;86867.81;5110879;28;20202;-55
2023/12/18 03:07:50;;;;;;;17.43;9.23;;;;;;;-144.30;88.95;86893.69;5111097;27;20777;-55
2023/12/18 03:10:17;;;;;;;13.03;8.50;;;;;;;-144.30;89.56;86873.78;5111119;28;20201;-55
2023/12/18 03:12:44;;;;;;;14.60;8.63;;;;;;;-144.30;89.40;86832.03;5110943;28;20197;-55
2023/12/18 03:15:12;;;;;;;16.17;9.17;;;;;;;-144.30;89.31;86851.91;5110574;28;20203;-54
2023/12/18 03:17:39;;;;;;;15.70;9.00;;;;;;;-144.30;88.98;86871.81;5110586;28;20210;-55
2023/12/18 03:20:08;;;;;;;12.13;8.23;;;;;;;-144.30;89.27;86887.72;5110944;28;20201;-54
2023/12/18 03:22:35;;;;;;;14.00;9.00;;;;;;;-144.30;89.17;86863.84;5110635;28;20226;-55
2023/12/18 03:25:02;;;;;;;14.00;8.20;;;;;;;-144.30;89.55;86875.78;5110742;28;20198;-53
2023/12/18 03:27:29;;;;;;;13.60;8.70;;;;;;;-144.30;89.89;86871.81;5110506;28;20201;-57
2023/12/18 03:29:56;;;;;;;13.23;8.03;;;;;;;-144.30;89.70;86808.16;5110864;28;20203;-54
2023/12/18 03:32:24;;;;;;;14.53;8.80;;;;;;;-144.30;90.09;86859.88;5110511;28;20298;-54
2023/12/18 03:34:51;;;;;;;14.60;8.53;;;;;;;-144.30;90.39;86875.78;5110496;28;20198;-55
2023/12/18 03:37:18;;;;;;;15.37;9.83;;;;;;;-144.30;90.45;86915.56;5110798;28;20201;-54
2023/12/18 03:39:45;;;;;;;15.17;9.53;;;;;;;-144.30;91.07;86859.88;5110502;28;20201;-54
2023/12/18 03:42:12;;;;;;;13.47;8.67;;;;;;;-144.30;90.91;86895.66;5110197;28;20568;-54
2023/12/18 03:44:42;;;;;;;13.13;9.63;;;;;;;-144.30;91.11;86907.59;5110177;28;20288;-54
2023/12/18 03:47:09;;;;;;;14.33;9.03;;;;;;;-144.30;91.20;86887.72;5110568;28;20228;-54
2023/12/18 03:49:37;;;;;;;13.50;8.63;;;;;;;-144.30;91.07;86859.88;5110234;28;20197;-55
2023/12/18 03:52:05;;;;;;;12.80;9.03;;;;;;;-144.30;91.48;86887.72;5110398;28;20665;-55
2023/12/18 03:54:31;;;;;;;11.43;7.83;;;;;;;-144.30;91.67;86883.72;5110042;28;20201;-56
2023/12/18 03:56:58;;;;;;;14.87;8.97;;;;;;;-144.30;91.41;86893.69;5110149;28;20197;-54
2023/12/18 03:59:25;;;;;;;13.27;8.90;;;;;;;-144.30;91.13;86883.72;5109864;28;20204;-54
2023/12/18 04:01:52;;;;;;;14.33;8.40;;;;;;;-144.30;90.75;86849.91;5110465;28;20225;-53
2023/12/18 04:04:19;;;;;;;14.97;8.93;;;;;;;-144.30;90.82;86853.91;5108762;28;20198;-56
2023/12/18 04:06:47;;;;;;;12.20;8.37;;;;;;;-144.30;90.92;86883.72;5109819;28;20205;-54
2023/12/18 04:09:14;;;;;;;13.90;8.43;;;;;;;-144.30;91.11;87384.94;5110110;28;20197;-55
2023/12/18 04:11:41;;;;;;;14.10;9.77;;;;;;;-144.30;91.45;86877.75;5108703;28;20445;-56
2023/12/18 04:14:08;;;;;;;14.27;8.80;;;;;;;-144.30;91.35;86855.88;5110008;28;20953;-55
2023/12/18 04:16:35;;;;;;;13.67;8.27;;;;;;;-144.30;90.60;86897.66;5110051;28;20692;-54
2023/12/18 04:19:02;;;;;;;15.27;8.33;;;;;;;-144.30;90.32;86863.84;5109926;28;20730;-54
2023/12/18 04:21:29;;;;;;;13.67;8.73;;;;;;;-144.30;90.09;86845.94;5109826;28;20204;-56
2023/12/18 04:23:57;;;;;;;13.57;8.23;;;;;;;-144.30;89.73;86863.84;5109743;28;20182;-53
2023/12/18 04:26:24;;;;;;;12.27;7.87;;;;;;;-144.30;89.47;86845.94;5111429;28;20666;-54
2023/12/18 04:28:51;;;;;;;11.07;7.53;;;;;;;-144.30;89.04;86859.88;5114356;28;20586;-56
2023/12/18 04:31:19;;;;;;;13.97;7.83;;;;;;;-144.30;88.83;86869.81;5114066;28;20225;-55
2023/12/18 04:33:46;;;;;;;12.33;7.43;;;;;;;-144.30;89.12;86834.00;5113788;28;20240;-54
2023/12/18 04:36:13;;;;;;;8.90;7.07;;;;;;;-144.30;88.66;86875.78;5114138;28;20202;-55
2023/12/18 04:38:42;;;;;;;11.17;7.33;;;;;;;-144.30;88.57;86836.00;5113979;28;20206;-54
2023/12/18 04:41:18;;;;;;;12.07;7.93;;;;;;;-144.30;88.57;86780.31;5114038;28;20234;-54
2023/12/18 04:43:45;;;;;;;11.73;7.47;;;;;;;-144.30;88.70;86845.94;5113678;28;20218;-56
2023/12/18 04:46:12;;;;;;;14.93;8.33;;;;;;;-144.30;88.37;86903.63;5113948;28;20191;-54
2023/12/18 04:48:38;;;;;;;11.57;7.67;;;;;;;-144.30;88.33;86875.78;5113603;28;20733;-54
2023/12/18 04:51:05;;;;;;;11.80;7.97;;;;;;;-144.30;88.11;86828.03;5113597;28;20281;-54
2023/12/18 04:53:33;;;;;;;12.93;8.13;;;;;;;-144.30;88.52;86830.03;5113559;28;20205;-57
2023/12/18 04:56:00;;;;;;;11.70;7.80;;;;;;;-144.30;88.34;86826.06;5113628;28;20191;-55
2023/12/18 04:58:30;;;;;;;12.50;8.07;;;;;;;-144.30;88.62;86879.75;5113440;28;20195;-54
2023/12/18 05:00:57;;;;;;;12.93;8.50;;;;;;;-144.30;88.35;86863.84;5113814;28;20286;-54
2023/12/18 05:03:24;;;;;;;13.63;8.90;;;;;;;-144.30;88.41;86875.78;5113612;28;20218;-53
2023/12/18 05:05:51;;;;;;;14.37;9.43;;;;;;;-144.30;88.61;86867.81;5113285;28;20293;-55
2023/12/18 05:08:18;;;;;;;12.73;8.33;;;;;;;-144.30;88.95;86839.97;5113260;28;20230;-55
2023/12/18 05:10:45;;;;;;;13.63;8.93;;;;;;;-144.30;89.00;86845.94;5108823;28;20209;-53
2023/12/18 05:13:12;;;;;;;12.95;9.30;;;;;;;-144.30;89.20;86869.81;5111817;28;20537;-55
2023/12/18 05:15:40;;;;;;;14.53;8.93;;;;;;;-144.30;89.52;86834.00;5112509;28;20197;-56
2023/12/18 05:18:07;;;;;;;13.77;8.50;;;;;;;-144.30;89.55;86836.00;5112799;28;20288;-55
2023/12/18 05:20:35;;;;;;;15.23;8.90;;;;;;;-144.30;89.61;86887.72;5118496;27;20206;-55
2023/12/18 05:23:01;;;;;;;12.10;8.63;;;;;;;-144.30;89.94;86879.75;5116071;27;20371;-54
2023/12/18 05:25:28;;;;;;;14.80;8.33;;;;;;;-144.30;89.92;86891.69;5112004;28;20281;-54
2023/12/18 05:27:56;;;;;;;14.03;8.17;;;;;;;-144.30;89.73;86875.78;5112643;28;20207;-55
2023/12/18 05:30:23;;;;;;;15.70;8.87;;;;;;;-144.30;90.04;86696.78;5112415;28;20198;-57
2023/12/18 05:32:51;;;;;;;16.43;9.37;;;;;;;-144.30;90.18;86903.63;5113032;28;20314;-56
2023/12/18 05:35:18;;;;;;;14.67;9.00;;;;;;;-144.30;90.34;86903.63;5112953;28;20662;-55
2023/12/18 05:37:45;;;;;;;18.60;9.80;;;;;;;-144.30;90.67;86899.66;5112678;27;20229;-56
2023/12/18 05:40:12;;;;;;;16.20;9.50;;;;;;;-144.30;90.94;86879.75;5111757;28;20236;-55
2023/12/18 05:42:39;;;;;;;15.37;9.73;;;;;;;-144.30;90.42;86887.72;5111357;28;20226;-56
2023/12/18 05:45:07;;;;;;;17.20;9.77;;;;;;;-144.30;90.41;86877.75;5112303;28;20204;-56
2023/12/18 05:47:35;;;;;;;15.03;8.90;;;;;;;-144.30;90.93;86899.66;5112417;28;20230;-56
2023/12/18 05:50:04;;;;;;;15.00;9.53;;;;;;;-144.30;91.42;86724.63;5112569;28;20207;-55
2023/12/18 05:52:31;;;;;;;15.97;9.57;;;;;;;-144.30;91.63;86847.94;5112417;28;20761;-56
2023/12/18 05:54:58;;;;;;;14.97;9.20;;;;;;;-144.30;92.06;86855.88;5112488;28;20552;-55
2023/12/18 05:57:25;;;;;;;16.30;9.17;;;;;;;-144.30;92.09;86877.75;5112216;28;20281;-56
2023/12/18 05:59:52;;;;;;;17.70;10.37;;;;;;;-144.30;92.06;86867.81;5112421;28;20207;-55
2023/12/18 06:02:19;;;;;;;17.63;10.60;;;;;;;-144.30;92.18;86903.63;5112442;28;20593;-55
2023/12/18 06:04:46;;;;;;;16.90;10.97;;;;;;;-144.30;92.50;86879.75;5112034;28;20198;-55
2023/12/18 06:07:14;;;;;;;20.57;11.50;;;;;;;-144.30;92.52;86873.78;5112127;28;20202;-56
2023/12/18 06:09:41;;;;;;;18.93;11.37;;;;;;;-144.30;92.88;86905.59;5111994;28;20411;-55
2023/12/18 06:12:08;;;;;;;20.70;12.03;;;;;;;-144.30;92.98;86883.72;5112016;28;20605;-55
2023/12/18 06:14:35;;;;;;;19.87;12.67;;;;;;;-144.30;92.83;86853.91;5111854;28;20205;-55
2023/12/18 06:17:02;;;;;;;23.70;13.13;;;;;;;-144.30;92.76;86867.81;5112385;28;20597;-55
2023/12/18 06:19:29;;;;;;;26.03;13.87;;;;;;;-144.30;92.70;86865.84;5111845;28;20197;-55
2023/12/18 06:21:56;;;;;;;27.83;13.60;;;;;;;-144.30;92.87;86913.56;5112376;28;20201;-58
2023/12/18 06:24:24;;;;;;;23.23;12.90;;;;;;;-144.30;93.43;86851.91;5111881;28;20745;-58
2023/12/18 06:26:53;;;;;;;22.30;13.40;;;;;;;-144.30;93.58;86875.78;5111734;28;20266;-56
2023/12/18 06:29:19;;;;;;;22.77;14.17;;;;;;;-144.30;93.39;86836.00;5112053;28;20667;-56
2023/12/18 06:31:47;;;;;;;26.30;15.00;;;;;;;-144.30;93.88;86863.84;5111810;28;20281;-54
2023/12/18 06:34:14;;;;;;;22.93;14.10;;;;;;;-144.30;93.56;86853.91;5111828;28;20198;-54
2023/12/18 06:36:42;;;;;;;27.07;14.13;;;;;;;-144.30;92.83;86881.75;5111496;28;20297;-56
2023/12/18 06:39:10;;;;;;;26.70;14.60;;;;;;;-144.30;92.25;86843.97;5111701;28;20670;-57
2023/12/18 06:41:38;;;;;;;26.87;15.13;;;;;;;-144.30;92.57;86871.81;5111127;28;20226;-56
2023/12/18 06:44:05;;;;;;;27.37;14.63;;;;;;;-144.30;92.16;86841.97;5111439;28;20228;-55
2023/12/18 06:46:33;;;;;;;32.60;17.03;;;;;;;-144.30;92.44;86867.81;5111806;28;20614;-55
2023/12/18 06:49:01;;;;;;;37.60;19.13;;;;;;;-144.30;92.69;86845.94;5110844;28;20195;-55
2023/12/18 06:51:28;;;;;;;42.00;20.67;;;;;;;-144.30;91.99;86834.00;5111234;28;20202;-56
2023/12/18 06:53:55;;;;;;;40.47;18.60;;;;;;;-144.30;91.67;86855.88;5111559;28;20556;-56
2023/12/18 06:56:22;;;;;;;41.03;20.07;;;;;;;-144.30;91.11;86869.81;5111822;28;20254;-56
2023/12/18 06:58:50;;;;;;;32.47;17.50;;;;;;;-144.30;90.76;86839.97;5105809;28;20194;-54
2023/12/18 07:01:17;;;;;;;28.07;16.10;;;;;;;-144.30;90.87;86756.44;5110489;28;20199;-56
2023/12/18 07:03:44;;;;;;;22.03;11.47;;;;;;;-144.30;89.91;86839.97;5110287;28;20214;-58
2023/12/18 07:06:11;;;;;;;19.57;10.97;;;;;;;-144.30;89.19;86816.13;5110384;28;20693;-55
2023/12/18 07:08:38;;;;;;;15.63;9.47;;;;;;;-144.30;88.59;86824.06;5108878;27;20285;-57
2023/12/18 07:11:05;;;;;;;19.40;10.80;;;;;;;-144.30;88.18;86806.16;5110717;28;20573;-57
2023/12/18 07:13:32;;;;;;;15.63;9.93;;;;;;;-144.30;87.65;86788.28;5110689;28;20698;-56
2023/12/18 07:16:00;;;;;;;16.90;9.87;;;;;;;-144.30;87.28;86792.25;5110314;28;20285;-55
2023/12/18 07:18:27;;;;;;;16.03;10.07;;;;;;;-144.30;87.64;86830.03;5109453;28;20198;-56
2023/12/18 07:20:55;;;;;;;18.50;10.27;;;;;;;-144.30;86.87;86810.16;5109539;28;20198;-58
2023/12/18 07:23:22;;;;;;;17.47;9.90;;;;;;;-144.30;86.61;86812.13;5110967;28;20220;-58
2023/12/18 07:25:49;;;;;;;15.57;9.47;;;;;;;-144.30;86.55;86792.25;5110535;28;20198;-55
2023/12/18 07:28:16;;;;;;;14.67;10.50;;;;;;;-144.30;86.27;86746.50;5110430;28;20206;-56
2023/12/18 07:30:42;;;;;;;17.83;11.33;;;;;;;-144.30;85.67;86768.38;5110404;28;20203;-56
2023/12/18 07:33:11;;;;;;;22.90;13.17;;;;;;;-144.30;85.51;86794.25;5110665;28;20429;-57
2023/12/18 07:35:38;;;;;;;26.33;14.67;;;;;;;-144.30;85.16;86770.38;5110273;28;20217;-55
2023/12/18 07:38:05;;;;;;;22.60;14.13;;;;;;;-144.30;85.79;86746.50;5110881;28;20277;-55
2023/12/18 07:40:32;;;;;;;28.80;16.57;;;;;;;-144.30;85.77;86772.34;5110210;28;20230;-56
2023/12/18 07:42:58;;;;;;;24.63;15.73;;;;;;;-144.30;86.20;86768.38;5110211;28;20221;-56
2023/12/18 07:45:25;;;;;;;27.70;15.87;;;;;;;-144.30;86.05;86816.13;5109871;28;20197;-57
2023/12/18 07:47:52;;;;;;;33.60;16.80;;;;;;;-144.30;85.52;86766.41;5110308;28;20198;-55
2023/12/18 07:50:21;;;;;;;28.70;16.73;;;;;;;-144.30;85.96;86784.28;5110275;28;20209;-55
2023/12/18 07:52:48;;;;;;;35.00;18.17;;;;;;;-144.30;86.36;86802.19;5110315;28;20198;-56
2023/12/18 07:55:14;;;;;;;35.60;19.23;;;;;;;-144.30;86.29;86796.22;5110228;28;20240;-55
2023/12/18 07:57:42;;;;;;;38.87;19.37;;;;;;;-144.30;86.82;86798.22;5110164;28;20696;-55
2023/12/18 08:00:10;;;;;;;35.87;19.87;;;;;;;-144.30;87.49;86778.31;5109813;28;20642;-55
2023/12/18 08:02:37;;;;;;;40.73;20.67;;;;;;;-144.30;87.82;86768.38;5109489;28;20201;-56
2023/12/18 08:05:04;;;;;;;40.03;19.87;;;;;;;-144.30;88.04;86764.41;5110481;28;20389;-56
2023/12/18 08:07:32;;;;;;;36.03;18.10;;;;;;;-144.30;88.09;86800.19;5109784;28;20201;-56
2023/12/18 08:09:59;;;;;;;34.03;19.23;;;;;;;-144.30;88.47;86776.34;5109980;28;20205;-56
2023/12/18 08:12:26;;;;;;;29.07;17.17;;;;;;;-144.30;87.96;86788.28;5109943;28;20205;-56
2023/12/18 08:14:54;;;;;;;29.40;15.90;;;;;;;-144.30;88.15;86820.09;5109909;28;20195;-55
2023/12/18 08:17:21;;;;;;;22.53;13.47;;;;;;;-144.30;87.56;86758.44;5110425;28;20572;-56
2023/12/18 08:19:48;;;;;;;20.13;12.50;;;;;;;-144.30;87.25;86716.69;5109729;28;20199;-56
2023/12/18 08:22:15;;;;;;;15.43;10.67;;;;;;;-144.30;86.61;86778.31;5110180;28;20662;-55
2023/12/18 08:24:43;;;;;;;16.63;10.30;;;;;;;-144.30;86.03;86730.59;5109728;28;20228;-55
2023/12/18 08:27:10;;;;;;;16.97;9.90;;;;;;;-144.30;85.67;86722.66;5109977;28;20281;-56
2023/12/18 08:29:39;;;;;;;14.00;9.73;;;;;;;-144.30;85.33;86772.34;5109616;28;20223;-56
2023/12/18 08:32:06;;;;;;;15.00;9.53;;;;;;;-144.30;85.13;86720.66;5109842;28;20198;-55
2023/12/18 08:34:33;;;;;;;15.43;10.27;;;;;;;-144.30;84.25;86728.59;5109651;28;20201;-56
2023/12/18 08:37:00;;;;;;;16.10;8.77;;;;;;;-144.30;83.26;86710.72;5109839;28;20195;-56
2023/12/18 08:39:27;;;;;;;13.50;9.47;;;;;;;-144.30;83.25;86710.72;5109386;28;20208;-57
2023/12/18 08:41:55;;;;;;;14.13;9.67;;;;;;;-144.30;83.05;86659.00;5109560;28;20622;-55
2023/12/18 08:44:22;;;;;;;12.97;9.03;;;;;;;-144.30;82.61;86696.78;5109517;28;20309;-55
2023/12/18 08:46:49;;;;;;;12.33;8.33;;;;;;;-144.30;82.10;86621.22;5109590;28;20198;-56
2023/12/18 08:49:16;;;;;;;11.13;8.30;;;;;;;-144.30;82.15;86714.69;5107565;28;20225;-55
2023/12/18 08:51:44;;;;;;;8.47;6.70;;;;;;;-144.30;82.04;86915.56;5106593;28;20221;-56
2023/12/18 08:54:10;;;;;;;9.50;7.27;;;;;;;-144.30;81.67;86657.03;5109247;28;20203;-55
2023/12/18 08:56:37;;;;;;;9.67;7.70;;;;;;;-144.30;81.71;86662.97;5109170;28;20226;-56
2023/12/18 08:59:06;;;;;;;8.27;6.50;;;;;;;-144.30;81.79;86657.03;5109388;28;20714;-55
2023/12/18 09:01:37;;;;;;;13.33;7.37;;;;;;;-144.30;82.25;86641.09;5108938;28;20549;-56
2023/12/18 09:04:06;;;;;;;8.77;7.43;;;;;;;-144.30;82.19;86659.00;5109094;28;20215;-55
2023/12/18 09:06:34;;;;;;;10.23;7.00;;;;;;;-144.30;82.22;86668.94;5108649;28;20697;-55
2023/12/18 09:09:02;;;;;;;8.97;6.37;;;;;;;-144.30;81.74;86637.13;5109421;28;20209;-55
2023/12/18 09:11:29;;;;;;;8.73;5.93;;;;;;;-144.30;81.77;86661.00;5109066;28;20197;-55
2023/12/18 09:13:57;;;;;;;10.27;6.00;;;;;;;-144.30;82.25;86653.03;5113144;28;20324;-55
2023/12/18 09:16:25;;;;;;;10.87;6.93;;;;;;;-144.30;81.88;86633.16;5113300;28;20206;-56
2023/12/18 09:18:52;;;;;;;9.13;7.37;;;;;;;-144.30;82.37;86662.97;5113064;28;20195;-56
2023/12/18 09:21:19;;;;;;;11.10;5.93;;;;;;;-144.30;81.73;86621.22;5112434;28;20201;-55
2023/12/18 09:23:46;;;;;;;9.23;6.47;;;;;;;-144.30;81.38;86645.09;5112729;28;20701;-57
2023/12/18 09:26:13;;;;;;;11.93;6.63;;;;;;;-144.30;80.51;86609.28;5113377;28;20711;-55
2023/12/18 09:28:40;;;;;;;6.20;5.33;;;;;;;-144.30;80.47;86625.19;5113123;28;20197;-56
2023/12/18 09:31:07;;;;;;;8.20;5.50;;;;;;;-144.30;79.65;86631.16;5113296;28;20226;-55
2023/12/18 09:33:36;;;;;;;12.73;5.93;;;;;;;-144.30;80.10;86633.16;5112008;28;20202;-54
2023/12/18 09:36:03;;;;;;;9.13;5.33;;;;;;;-144.30;79.95;86637.13;5099795;28;20210;-56
2023/12/18 09:38:30;;;;;;;8.13;5.60;;;;;;;-144.30;80.20;86637.13;5112357;28;20281;-56
2023/12/18 09:40:57;;;;;;;9.47;5.90;;;;;;;-144.30;84.30;86593.38;5112428;28;20234;-54
2023/12/18 09:43:26;;;;;;;8.83;6.27;;;;;;;-144.30;82.20;86609.28;5112325;28;20218;-55
2023/12/18 09:45:55;;;;;;;8.00;6.07;;;;;;;-144.30;80.54;86557.59;5112088;28;20210;-55
2023/12/18 09:48:23;;;;;;;8.33;6.60;;;;;;;-144.30;80.42;86555.59;5112539;28;20209;-54
2023/12/18 09:50:51;;;;;;;8.40;6.90;;;;;;;-144.30;79.98;86589.41;5111802;28;20290;-54
2023/12/18 09:53:20;;;;;;;8.30;6.77;;;;;;;-144.30;79.35;86553.59;5112346;28;20693;-55
2023/12/18 09:55:54;;;;;;;11.07;7.40;;;;;;;-144.30;79.02;86563.56;5111648;28;20217;-55
2023/12/18 09:58:24;;;;;;;9.30;7.57;;;;;;;-144.30;78.97;86583.44;5112049;28;20598;-55
2023/12/18 10:00:52;;;;;;;9.87;7.00;;;;;;;-144.30;79.21;86535.72;5111735;28;20201;-56
2023/12/18 10:03:19;;;;;;;13.10;7.57;;;;;;;-144.30;79.25;86491.97;5112384;28;20568;-56
2023/12/18 10:05:47;;;;;;;10.80;7.57;;;;;;;-144.30;79.68;86545.66;5111959;28;20205;-56
2023/12/18 10:08:16;;;;;;;10.10;7.20;;;;;;;-144.30;79.48;86565.53;5112431;28;20234;-56
2023/12/18 10:10:44;;;;;;;11.10;7.97;;;;;;;-144.30;79.73;86537.69;5112133;28;20619;-55
2023/12/18 10:13:13;;;;;;;12.20;7.03;;;;;;;-144.30;79.47;86531.72;5112790;28;20217;-55
2023/12/18 10:15:42;;;;;;;21.37;8.67;;;;;;;-144.30;79.51;86537.69;5111897;28;20222;-57
2023/12/18 10:18:09;;;;;;;12.27;7.23;;;;;;;-144.30;79.54;86537.69;5112097;28;20666;-55
2023/12/18 10:20:37;;;;;;;10.13;7.27;;;;;;;-144.30;80.25;86820.09;5112006;28;20599;-55
2023/12/18 10:23:05;;;;;;;9.43;6.47;;;;;;;-144.30;80.02;86521.78;5111774;28;20191;-56
2023/12/18 10:25:35;;;;;;;7.00;5.93;;;;;;;-144.30;80.44;86525.75;5110871;28;20225;-54
2023/12/18 10:28:03;;;;;;;7.27;5.60;;;;;;;-144.30;80.58;86519.81;5112224;28;20198;-56
2023/12/18 10:30:30;;;;;;;7.20;5.67;;;;;;;-144.30;80.23;86529.75;5111638;28;20202;-56
2023/12/18 10:32:59;;;;;;;10.17;5.40;;;;;;;-144.30;80.69;86515.81;5111690;28;20217;-56
2023/12/18 10:35:27;;;;;;;5.60;5.00;;;;;;;-144.30;80.52;86509.84;5111737;28;20191;-56
2023/12/18 10:37:54;;;;;;;6.83;5.20;;;;;;;-144.30;80.09;86533.72;5111286;28;20723;-56
2023/12/18 10:40:23;;;;;;;7.57;4.97;;;;;;;-144.30;79.95;86484.00;5111804;28;20198;-56
2023/12/18 10:43:02;;;;;;;5.50;5.00;;;;;;;-144.30;79.75;86460.16;5111363;28;20202;-60
2023/12/18 10:45:30;;;;;;;6.67;4.83;;;;;;;-144.30;79.75;86513.84;5111429;28;20228;-56
2023/12/18 10:48:00;;;;;;;6.03;4.70;;;;;;;-144.30;79.46;86501.91;5111444;28;20194;-56
2023/12/18 10:50:31;;;;;;;8.23;5.47;;;;;;;-144.30;79.54;86472.06;5111597;28;20206;-55
2023/12/18 10:53:00;;;;;;;8.77;4.63;;;;;;;-144.30;79.54;86478.03;5111351;28;20205;-56
2023/12/18 10:55:27;;;;;;;5.57;4.23;;;;;;;-144.30;78.83;86482.03;5111391;28;20681;-56
2023/12/18 10:57:59;;;;;;;5.07;4.30;;;;;;;-144.30;78.48;86482.03;5111370;28;20202;-57
2023/12/18 11:00:26;;;;;;;8.30;4.80;;;;;;;-144.30;78.61;86342.81;5111206;28;20194;-57
2023/12/18 11:02:55;;;;;;;8.83;4.90;;;;;;;-144.30;79.15;86484.00;5110035;28;20599;-56
2023/12/18 11:05:22;;;;;;;6.13;5.07;;;;;;;-144.30;79.27;86446.22;5110457;27;20301;-57
2023/12/18 11:07:51;;;;;;;5.23;4.70;;;;;;;-144.30;79.44;86470.09;5110418;28;20205;-56